This is the latest recevied weather packets stored in our database for station/object DO7CRZ-11. If no packets are shown the sender has not sent any weather packets the latest 1 day(s).
| Time | Temp. | Humidity | Pressure | Rain* | Wind** | Luminosity | Snow |
|---|---|---|---|---|---|---|---|
| 1778086332 | 18.33° C | 67% | 1005.6 hPa | 0 mm | - | 48 W/m² | - |
| 1778079728 | 22.22° C | 55% | 1005.9 hPa | 0 mm | - | 317 W/m² | - |
| 1778077928 | 22.22° C | 55% | 1006.1 hPa | 0 mm | - | 299 W/m² | - |
| 1778073733 | 21.67° C | 54% | 1006.2 hPa | 0 mm | - | 449 W/m² | - |
| 1778072527 | 21.67° C | 56% | 1006.2 hPa | 0 mm | - | 565 W/m² | - |
| 1778071931 | 21.11° C | 57% | 1006.2 hPa | 0 mm | - | 416 W/m² | - |
| 1778068929 | 18.89° C | 64% | 1006.4 hPa | 0 mm | - | 157 W/m² | - |
| 1778068330 | 18.89° C | 65% | 1006.5 hPa | 0 mm | - | 282 W/m² | - |
| 1778065933 | 19.44° C | 64% | 1006.3 hPa | 0 mm | - | 161 W/m² | - |
| 1778063536 | 19.44° C | 67% | 1006.3 hPa | 0 mm | - | 640 W/m² | - |
| 1778062332 | 18.89° C | 68% | 1006.4 hPa | 0 mm | - | 224 W/m² | - |
| 1778061128 | 18.33° C | 71% | 1006.3 hPa | 0 mm | - | 549 W/m² | - |
| 1778059333 | 18.89° C | 67% | 1006 hPa | 0 mm | - | 223 W/m² | - |
| 1778057528 | 18.89° C | 69% | 1005.8 hPa | 0 mm | - | 131 W/m² | - |
| 1778056334 | 18.89° C | 71% | 1005.6 hPa | 0 mm | - | 431 W/m² | - |
| 1778055727 | 18.33° C | 72% | 1005.4 hPa | 0 mm | - | 545 W/m² | - |
| 1778055130 | 17.78° C | 73% | 1005.4 hPa | 0 mm | - | 523 W/m² | - |
| 1778054533 | 17.78° C | 75% | 1005.6 hPa | 0 mm | - | 554 W/m² | - |
| 1778052733 | 16.67° C | 79% | 1005.5 hPa | 0 mm | - | 393 W/m² | - |
| 1778052135 | 16.67° C | 79% | 1005.4 hPa | 0 mm | - | 309 W/m² | - |
| 1778050932 | 16.11° C | 83% | 1005.7 hPa | 0 mm | - | 400 W/m² | - |
| 1778050339 | 16.11° C | 85% | 1005.8 hPa | 0 mm | - | 228 W/m² | - |
| 1778049132 | 15° C | 89% | 1005.7 hPa | 0 mm | - | 395 W/m² | - |
| 1778048538 | 14.44° C | 89% | 1005.7 hPa | 0 mm | - | 165 W/m² | - |
| 1778047335 | 13.33° C | 92% | 1005.5 hPa | 0 mm | - | 232 W/m² | - |
* Rain latest hour (hover to see other rain measurements)
** Current wind speed in m/s (hover to see current wind gust speed)